createdAt,value
2023-01-28T00:00:45.126Z,39.6
2023-01-28T00:01:52.872Z,42
2023-01-28T00:03:00.852Z,41.8
2023-01-28T00:04:08.110Z,41.1
2023-01-28T00:05:15.767Z,39.6
2023-01-28T00:06:22.564Z,45.8
2023-01-28T00:07:29.990Z,43.1
2023-01-28T00:08:37.593Z,46.5
2023-01-28T00:09:44.746Z,46.6
2023-01-28T00:10:53.073Z,47.6
2023-01-28T00:12:02.833Z,45.8
2023-01-28T00:13:09.838Z,52.5
2023-01-28T00:14:19.590Z,51.6
2023-01-28T00:15:28.053Z,55.3
2023-01-28T00:16:35.829Z,59.7
2023-01-28T00:17:43.033Z,63.7
2023-01-28T00:18:50.128Z,58.9
2023-01-28T00:19:57.406Z,56.2
2023-01-28T00:21:06.601Z,56.2
2023-01-28T00:22:14.522Z,56.6
2023-01-28T00:23:22.483Z,58.3
2023-01-28T00:24:33.454Z,57.6
2023-01-28T00:25:40.893Z,55.8
2023-01-28T00:26:48.180Z,45.8
2023-01-28T00:27:55.326Z,49
2023-01-28T00:29:03.578Z,46
2023-01-28T00:30:10.573Z,44.5
2023-01-28T00:31:17.999Z,44.4
2023-01-28T00:32:25.398Z,47.1
2023-01-28T00:33:32.480Z,45.8
2023-01-28T00:34:39.596Z,47.7
2023-01-28T00:35:46.778Z,46.6
2023-01-28T00:37:01.569Z,43.8
2023-01-28T00:38:08.869Z,46.6
2023-01-28T00:39:16.245Z,47.8
2023-01-28T00:40:23.746Z,47.8
2023-01-28T00:41:32.940Z,48.6
2023-01-28T00:42:40.270Z,45.9
2023-01-28T00:43:47.467Z,46
2023-01-28T00:44:55.057Z,47.2
2023-01-28T00:46:02.168Z,45.7
2023-01-28T00:47:10.386Z,46.1
2023-01-28T00:48:17.633Z,43.5
2023-01-28T00:49:25.786Z,42.4
2023-01-28T00:50:33.344Z,42.1
2023-01-28T00:51:42.322Z,43.2
2023-01-28T00:52:50.761Z,40.5
2023-01-28T00:53:58.114Z,40.3
2023-01-28T00:55:07.259Z,45.7
2023-01-28T00:56:14.539Z,41.7
2023-01-28T00:57:21.662Z,43.3
2023-01-28T00:58:29.233Z,40.4
2023-01-28T00:59:37.198Z,39.1
2023-01-28T01:00:44.691Z,40.1
2023-01-28T01:01:51.788Z,37.1
2023-01-28T01:02:59.066Z,37.3
2023-01-28T01:04:06.321Z,37.1
2023-01-28T01:05:13.574Z,38.2
2023-01-28T01:06:20.515Z,38.7
2023-01-28T01:07:29.020Z,40.4
2023-01-28T01:08:36.602Z,41.4
2023-01-28T01:09:44.086Z,39
2023-01-28T01:10:51.097Z,39
2023-01-28T01:12:00.070Z,40
2023-01-28T01:13:07.601Z,39.2
2023-01-28T01:14:16.657Z,38.3
2023-01-28T01:15:23.622Z,39
2023-01-28T01:16:31.454Z,38
2023-01-28T01:17:39.834Z,39.9
2023-01-28T01:18:47.115Z,37.2
2023-01-28T01:19:54.353Z,36.3
2023-01-28T01:21:01.501Z,36.3
2023-01-28T01:22:09.668Z,37.3
2023-01-28T01:23:17.001Z,37
2023-01-28T01:24:25.229Z,38
2023-01-28T01:25:33.934Z,34.7
2023-01-28T01:26:41.900Z,33.3
2023-01-28T01:27:51.704Z,33.3
2023-01-28T01:28:58.973Z,33.3
2023-01-28T01:30:05.850Z,39.4
2023-01-28T01:31:13.037Z,35.4
2023-01-28T01:32:20.893Z,36.4
2023-01-28T01:33:28.693Z,37
2023-01-28T01:34:36.309Z,35.8
2023-01-28T01:35:44.334Z,36
2023-01-28T01:36:51.413Z,34.3
2023-01-28T01:37:59.865Z,36
2023-01-28T01:39:06.961Z,33.3
2023-01-28T01:40:17.045Z,32.7
2023-01-28T01:41:24.928Z,35.1
2023-01-28T01:42:33.015Z,36
2023-01-28T01:43:40.900Z,36.5
2023-01-28T01:44:51.197Z,35.6
2023-01-28T01:46:09.740Z,35.1
2023-01-28T01:47:16.544Z,34
2023-01-28T01:48:23.893Z,34.3
2023-01-28T01:49:33.908Z,35.6
2023-01-28T01:50:41.061Z,32.5
2023-01-28T01:51:53.822Z,33.9
2023-01-28T01:53:00.992Z,31.4
2023-01-28T01:54:08.117Z,31
2023-01-28T01:55:16.022Z,31.6
2023-01-28T01:56:22.937Z,31.5
2023-01-28T01:57:30.327Z,33
2023-01-28T01:58:38.537Z,32
2023-01-28T01:59:46.441Z,34.1
2023-01-28T02:00:53.331Z,37.3
2023-01-28T02:02:00.588Z,35.2
2023-01-28T02:03:08.567Z,33
2023-01-28T02:04:16.060Z,35
2023-01-28T02:05:24.284Z,35.4
2023-01-28T02:06:31.641Z,33.5
2023-01-28T02:07:39.094Z,32.3
2023-01-28T02:08:46.570Z,32.1
2023-01-28T02:09:53.864Z,31.5
2023-01-28T02:11:00.959Z,29.9
2023-01-28T02:12:08.148Z,33.1
2023-01-28T02:13:15.236Z,32.3
2023-01-28T02:14:30.468Z,31.1
2023-01-28T02:15:30.217Z,30.9
2023-01-28T02:16:37.328Z,31.7
2023-01-28T02:17:45.264Z,29
2023-01-28T02:18:52.603Z,29.6
2023-01-28T02:20:00.707Z,29.6
2023-01-28T02:21:12.028Z,32.8
2023-01-28T02:22:25.048Z,30
2023-01-28T02:23:37.288Z,31.3
2023-01-28T02:24:51.699Z,30.8
2023-01-28T02:26:06.856Z,31.4
2023-01-28T02:27:24.484Z,28.6
2023-01-28T02:28:35.631Z,32.1
2023-01-28T02:29:49.168Z,32.2
2023-01-28T02:31:07.712Z,30.4
2023-01-28T02:32:14.752Z,31.7
2023-01-28T02:33:27.132Z,30.6
2023-01-28T02:34:38.063Z,33.5
2023-01-28T02:35:51.517Z,31.5
2023-01-28T02:36:58.795Z,30
2023-01-28T02:38:11.667Z,31.1
2023-01-28T02:39:21.974Z,31.4
2023-01-28T02:40:34.142Z,27.8
2023-01-28T02:41:41.341Z,29.4
2023-01-28T02:42:53.939Z,30.6
2023-01-28T02:44:01.193Z,31
2023-01-28T02:45:08.335Z,32.2
2023-01-28T02:46:15.544Z,28.8
2023-01-28T02:47:30.648Z,31
2023-01-28T02:48:43.273Z,30.4
2023-01-28T02:49:51.120Z,28.9
2023-01-28T02:51:00.069Z,30.9
2023-01-28T02:52:12.564Z,31.2
2023-01-28T02:53:30.403Z,29.6
2023-01-28T02:54:47.063Z,29.6
2023-01-28T02:55:59.508Z,32.1
2023-01-28T02:57:11.952Z,30.8
2023-01-28T02:58:27.164Z,32.2
2023-01-28T02:59:42.895Z,30.2
2023-01-28T03:00:55.300Z,29.7
2023-01-28T03:02:12.686Z,31.4
2023-01-28T03:03:26.392Z,30.2
2023-01-28T03:04:43.672Z,30.7
2023-01-28T03:05:51.655Z,29.9
2023-01-28T03:07:04.827Z,30.2
2023-01-28T03:08:12.084Z,28.2
2023-01-28T03:09:24.244Z,30.5
2023-01-28T03:10:32.628Z,30.1
2023-01-28T03:11:39.804Z,30.5
2023-01-28T03:12:58.101Z,28.5
2023-01-28T03:14:11.172Z,30.4
2023-01-28T03:15:23.383Z,29.5
2023-01-28T03:16:35.575Z,30
2023-01-28T03:17:48.012Z,28.5
2023-01-28T03:19:09.220Z,28
2023-01-28T03:20:21.301Z,28.6
2023-01-28T03:21:38.727Z,26
2023-01-28T03:22:51.263Z,27.6
2023-01-28T03:24:03.882Z,26.8
2023-01-28T03:25:16.572Z,28
2023-01-28T03:26:28.917Z,27.2
2023-01-28T03:27:42.159Z,27.9
2023-01-28T03:28:54.491Z,27
2023-01-28T03:30:06.924Z,28.1
2023-01-28T03:31:27.711Z,29.2
2023-01-28T03:32:40.654Z,27.1
2023-01-28T03:33:53.924Z,26
2023-01-28T03:35:07.113Z,29.5
2023-01-28T03:36:19.681Z,27.1
2023-01-28T03:37:33.047Z,28.7
2023-01-28T03:38:40.505Z,28.9
2023-01-28T03:39:47.606Z,33.5
2023-01-28T03:40:56.277Z,32.2
2023-01-28T03:42:06.350Z,29.4
2023-01-28T03:43:15.176Z,27.7
2023-01-28T03:44:22.079Z,27.1
2023-01-28T03:45:35.339Z,27.2
2023-01-28T03:46:42.700Z,28.8
2023-01-28T03:47:49.619Z,26.4
2023-01-28T03:48:58.149Z,25.6
2023-01-28T03:50:05.952Z,26.4
2023-01-28T03:51:14.331Z,26.7
2023-01-28T03:52:22.402Z,25.2
2023-01-28T03:53:32.577Z,25.5
2023-01-28T03:54:40.784Z,26.5
2023-01-28T03:55:49.076Z,28.4
2023-01-28T03:56:56.308Z,26.8
2023-01-28T03:58:04.437Z,27.4
2023-01-28T03:59:11.710Z,26.8
2023-01-28T04:00:19.763Z,29
2023-01-28T04:01:27.047Z,27.2
2023-01-28T04:02:34.876Z,29.4
2023-01-28T04:03:42.532Z,28.1
2023-01-28T04:04:50.322Z,27.9
2023-01-28T04:05:57.871Z,27
2023-01-28T04:07:06.085Z,28.2
2023-01-28T04:08:13.135Z,28.7
2023-01-28T04:09:21.078Z,29.2
2023-01-28T04:10:28.979Z,26.4
2023-01-28T04:11:36.478Z,26.9
2023-01-28T04:12:44.589Z,24.9
2023-01-28T04:13:52.328Z,25.2
2023-01-28T04:15:00.840Z,24.9
2023-01-28T04:16:09.295Z,24.1
2023-01-28T04:17:16.437Z,27.4
2023-01-28T04:18:24.728Z,26.8
2023-01-28T04:19:31.929Z,27.5
2023-01-28T04:20:41.324Z,29.3
2023-01-28T04:21:48.592Z,29.6
2023-01-28T04:22:58.143Z,26.8
2023-01-28T04:24:05.318Z,25.2
2023-01-28T04:25:12.897Z,26.9
2023-01-28T04:26:19.499Z,29.2
2023-01-28T04:27:26.727Z,31.1
2023-01-28T04:28:34.629Z,32
2023-01-28T04:29:42.219Z,35.6
2023-01-28T04:30:49.752Z,33.6
2023-01-28T04:31:57.099Z,30
2023-01-28T04:33:04.428Z,29.5
2023-01-28T04:34:11.415Z,28.2
2023-01-28T04:35:19.425Z,30.1
2023-01-28T04:36:26.701Z,27.8
2023-01-28T04:37:34.607Z,32.9
2023-01-28T04:38:43.403Z,30.1
2023-01-28T04:39:51.613Z,27.9
2023-01-28T04:40:59.356Z,32.3
2023-01-28T04:42:06.412Z,32.3
2023-01-28T04:43:14.374Z,29.1
2023-01-28T04:44:23.476Z,28.3
2023-01-28T04:45:30.289Z,29.3
2023-01-28T04:46:38.940Z,29.4
2023-01-28T04:47:46.904Z,30.2
2023-01-28T04:48:54.499Z,27.9
2023-01-28T04:50:04.365Z,27.9
2023-01-28T04:51:14.047Z,26.5
2023-01-28T04:52:22.061Z,28.5
2023-01-28T04:53:30.583Z,28.1
2023-01-28T04:54:39.627Z,26.7
2023-01-28T04:55:46.720Z,23.1
2023-01-28T04:56:53.891Z,26.3
2023-01-28T04:58:02.351Z,30.1
2023-01-28T04:59:09.679Z,31.7
2023-01-28T05:00:17.802Z,25.1
2023-01-28T05:01:24.804Z,23.2
2023-01-28T05:02:33.099Z,25.5
2023-01-28T05:03:41.012Z,23.5
2023-01-28T05:04:48.570Z,24.5
2023-01-28T05:05:56.351Z,24.5
2023-01-28T05:07:03.606Z,24.5
2023-01-28T05:08:12.065Z,23.4
2023-01-28T05:09:19.509Z,22.7
2023-01-28T05:10:26.467Z,23.5
2023-01-28T05:11:33.955Z,22.3
2023-01-28T05:12:42.208Z,21.4
2023-01-28T05:13:49.783Z,22.3
2023-01-28T05:14:57.316Z,23.5
2023-01-28T05:16:04.628Z,24.1
2023-01-28T05:17:11.953Z,22.8
2023-01-28T05:18:19.297Z,24.3
2023-01-28T05:19:26.591Z,25.6
2023-01-28T05:20:34.674Z,28.5
2023-01-28T05:21:42.372Z,28.9
2023-01-28T05:22:49.523Z,28.9
2023-01-28T05:23:57.564Z,30.5
2023-01-28T05:25:05.223Z,34.4
2023-01-28T05:26:13.025Z,32.8
2023-01-28T05:27:21.190Z,32.1
2023-01-28T05:28:28.255Z,32
2023-01-28T05:29:35.603Z,33.2
2023-01-28T05:30:43.088Z,32.6
2023-01-28T05:31:50.515Z,32.7
2023-01-28T05:32:59.863Z,35.3
2023-01-28T05:34:07.004Z,35.7
2023-01-28T05:35:15.682Z,39.1
2023-01-28T05:36:22.707Z,35.3
2023-01-28T05:37:29.979Z,33.6
2023-01-28T05:38:37.004Z,33.1
2023-01-28T05:39:44.143Z,32.3
2023-01-28T05:40:51.447Z,34.3
2023-01-28T05:41:59.018Z,36.5
2023-01-28T05:43:06.081Z,35.9
2023-01-28T05:44:13.119Z,36.1
2023-01-28T05:45:20.512Z,36.6
2023-01-28T05:46:28.351Z,38.4
2023-01-28T05:47:36.374Z,38.2
2023-01-28T05:48:43.671Z,38.3
2023-01-28T05:49:51.773Z,35.2
2023-01-28T05:50:59.767Z,32.3
2023-01-28T05:52:08.186Z,34.3
2023-01-28T05:53:16.186Z,33.1
2023-01-28T05:54:23.411Z,29.2
2023-01-28T05:55:31.749Z,30
2023-01-28T05:56:38.802Z,27.9
2023-01-28T05:57:46.644Z,27.9
2023-01-28T05:58:54.309Z,27.7
2023-01-28T06:00:02.207Z,27.3
2023-01-28T06:01:10.902Z,26.6
2023-01-28T06:02:19.387Z,25.6
2023-01-28T06:03:27.153Z,23.5
2023-01-28T06:04:34.126Z,24.8
2023-01-28T06:05:41.243Z,21.9
2023-01-28T06:06:49.253Z,20.6
2023-01-28T06:07:57.551Z,21
2023-01-28T06:09:04.685Z,20.8
2023-01-28T06:10:13.006Z,21.9
2023-01-28T06:11:19.998Z,21.3
2023-01-28T06:12:26.980Z,21.6
2023-01-28T06:13:34.130Z,19.1
2023-01-28T06:14:42.319Z,20.6
2023-01-28T06:15:50.508Z,18.7
2023-01-28T06:16:57.707Z,17.6
2023-01-28T06:18:05.920Z,19.4
2023-01-28T06:19:13.705Z,17.8
2023-01-28T06:20:23.480Z,17.1
2023-01-28T06:21:30.826Z,18.4
2023-01-28T06:22:38.261Z,18.7
2023-01-28T06:23:45.398Z,19.1
2023-01-28T06:24:52.517Z,19.4
2023-01-28T06:25:59.717Z,19.3
2023-01-28T06:27:08.498Z,21.3
2023-01-28T06:28:15.513Z,21
2023-01-28T06:29:22.792Z,20.5
2023-01-28T06:30:30.322Z,21.8
2023-01-28T06:31:37.270Z,24.7
2023-01-28T06:32:45.729Z,23.7
2023-01-28T06:33:53.274Z,22.4
2023-01-28T06:35:01.177Z,20.8
2023-01-28T06:36:08.295Z,21.8
2023-01-28T06:37:15.431Z,21.8
2023-01-28T06:38:22.474Z,21.1
2023-01-28T06:39:29.972Z,21.3
2023-01-28T06:40:37.508Z,24
2023-01-28T06:41:44.576Z,21.7
2023-01-28T06:42:52.798Z,20
2023-01-28T06:43:59.761Z,20.8
2023-01-28T06:45:07.464Z,19.5
2023-01-28T06:46:15.385Z,20.5
2023-01-28T06:47:22.553Z,20.2
2023-01-28T06:48:29.890Z,20.2
2023-01-28T06:49:36.973Z,19.3
2023-01-28T06:50:44.002Z,21.8
2023-01-28T06:51:51.248Z,20.7
2023-01-28T06:52:58.277Z,20.9
2023-01-28T06:54:07.013Z,20.5
2023-01-28T06:55:14.053Z,21.8
2023-01-28T06:56:21.109Z,19.6
2023-01-28T06:57:29.664Z,20
2023-01-28T06:58:36.959Z,19.1
2023-01-28T06:59:44.122Z,22.8
2023-01-28T07:00:51.441Z,18.6
2023-01-28T07:01:58.379Z,21.2
2023-01-28T07:03:05.743Z,21.8
2023-01-28T07:04:13.758Z,21.2
2023-01-28T07:05:22.428Z,21.9
2023-01-28T07:06:30.409Z,22.5
2023-01-28T07:07:40.145Z,21.4
2023-01-28T07:08:45.600Z,22
2023-01-28T07:09:53.081Z,24
2023-01-28T07:11:00.356Z,22.7
2023-01-28T07:12:07.692Z,24.1
2023-01-28T07:13:14.704Z,22.8
2023-01-28T07:14:21.937Z,22.8
2023-01-28T07:15:30.145Z,23.1
2023-01-28T07:16:37.602Z,23.2
2023-01-28T07:17:45.049Z,23.8
2023-01-28T07:18:52.145Z,23.1
2023-01-28T07:20:00.237Z,24.6
2023-01-28T07:21:08.108Z,22.9
2023-01-28T07:22:15.338Z,21.1
2023-01-28T07:23:22.535Z,22.1
2023-01-28T07:24:30.044Z,21.8
2023-01-28T07:25:37.645Z,23.3
2023-01-28T07:26:45.112Z,21.7
2023-01-28T07:27:53.394Z,22.9
2023-01-28T07:29:01.446Z,24.7
2023-01-28T07:30:09.600Z,24.2
2023-01-28T07:31:17.087Z,21.5
2023-01-28T07:32:24.168Z,23.1
2023-01-28T07:33:31.275Z,25.2
2023-01-28T07:34:39.348Z,27.1
2023-01-28T07:35:46.503Z,25.9
2023-01-28T07:36:54.571Z,26.1
2023-01-28T07:38:00.848Z,25.9
2023-01-28T07:39:08.946Z,26.4
2023-01-28T07:40:16.756Z,26.4
2023-01-28T07:41:24.074Z,27.9
2023-01-28T07:42:31.313Z,27.1
2023-01-28T07:43:39.259Z,26.7
2023-01-28T07:44:47.015Z,28.2
2023-01-28T07:45:55.750Z,28.7
2023-01-28T07:47:08.737Z,29.3
2023-01-28T07:48:15.943Z,32.1
2023-01-28T07:49:23.167Z,31.1
2023-01-28T07:50:30.643Z,32
2023-01-28T07:51:38.568Z,32.7
2023-01-28T07:52:45.601Z,33.2
2023-01-28T07:53:52.954Z,31.2
2023-01-28T07:55:01.399Z,32.2
2023-01-28T07:56:10.040Z,35.3
2023-01-28T07:57:17.133Z,33.1
2023-01-28T07:58:25.152Z,33.2
2023-01-28T07:59:32.639Z,33.4
2023-01-28T08:00:40.764Z,35.5
2023-01-28T08:01:48.829Z,36.3
2023-01-28T08:02:56.667Z,35.2
2023-01-28T08:04:04.638Z,31.3
2023-01-28T08:05:12.615Z,32.3
2023-01-28T08:06:20.584Z,29.7
2023-01-28T08:07:28.277Z,30.5
2023-01-28T08:08:36.387Z,32.2
2023-01-28T08:09:43.809Z,29.7
2023-01-28T08:10:51.851Z,31.8
2023-01-28T08:11:59.256Z,31.8
2023-01-28T08:13:06.698Z,31.4
2023-01-28T08:14:13.711Z,32.3
2023-01-28T08:15:21.679Z,29.5
2023-01-28T08:16:28.583Z,31.7
2023-01-28T08:17:35.806Z,32.1
2023-01-28T08:18:42.813Z,34.9
2023-01-28T08:19:50.952Z,35.8
2023-01-28T08:20:58.023Z,33.8
2023-01-28T08:22:05.975Z,33.6
2023-01-28T08:23:13.107Z,32.6
2023-01-28T08:24:22.954Z,34.3
2023-01-28T08:25:31.618Z,33.3
2023-01-28T08:26:38.822Z,30.4
2023-01-28T08:27:46.151Z,28.1
2023-01-28T08:28:53.035Z,31.2
2023-01-28T08:30:00.386Z,31.4
2023-01-28T08:31:08.149Z,27.7
2023-01-28T08:32:15.536Z,28.4
2023-01-28T08:33:22.645Z,31.7
2023-01-28T08:34:30.631Z,27.5
2023-01-28T08:35:38.244Z,28.9
2023-01-28T08:36:46.788Z,30.9
2023-01-28T08:37:55.383Z,30.7
2023-01-28T08:39:03.390Z,32.4
2023-01-28T08:40:10.494Z,32
2023-01-28T08:41:18.100Z,32.6
2023-01-28T08:42:26.450Z,30.3
2023-01-28T08:43:34.222Z,37.8
2023-01-28T08:44:41.811Z,28.1
2023-01-28T08:45:50.242Z,28.6
2023-01-28T08:46:57.719Z,30.7
2023-01-28T08:48:06.009Z,29.4
2023-01-28T08:49:15.190Z,28.7
2023-01-28T08:50:22.198Z,26.8
2023-01-28T08:51:29.298Z,26.6
2023-01-28T08:52:36.553Z,30
2023-01-28T08:53:44.538Z,33.2
2023-01-28T08:54:51.793Z,33.4
2023-01-28T08:55:58.897Z,30.7
2023-01-28T08:57:06.613Z,31.6
2023-01-28T08:58:14.904Z,29.1
2023-01-28T08:59:23.079Z,27.8
2023-01-28T09:00:31.399Z,30.1
2023-01-28T09:01:41.741Z,28.4
2023-01-28T09:02:49.269Z,26.6
2023-01-28T09:03:56.834Z,30
2023-01-28T09:05:04.213Z,29.5
2023-01-28T09:06:16.148Z,28.9
2023-01-28T09:07:26.464Z,32
2023-01-28T09:08:33.629Z,36.5
2023-01-28T09:09:41.951Z,37.5
2023-01-28T09:10:49.813Z,32.5
2023-01-28T09:12:00.987Z,31
2023-01-28T09:13:09.652Z,32.1
2023-01-28T09:14:17.300Z,27.7
2023-01-28T09:15:24.698Z,25.7
2023-01-28T09:16:32.768Z,25.3
2023-01-28T09:17:40.931Z,28.2
2023-01-28T09:18:48.957Z,29
2023-01-28T09:19:57.124Z,28.6
2023-01-28T09:21:05.282Z,29
2023-01-28T09:22:13.550Z,26.8
2023-01-28T09:23:21.506Z,29.1
2023-01-28T09:24:29.553Z,28.6
2023-01-28T09:25:37.093Z,29.4
2023-01-28T09:26:45.776Z,28.2
2023-01-28T09:27:54.265Z,27.5
2023-01-28T09:29:02.938Z,28.6
2023-01-28T09:30:10.003Z,30.7
2023-01-28T09:31:18.588Z,27.1
2023-01-28T09:32:25.745Z,29.3
2023-01-28T09:33:33.266Z,27.9
2023-01-28T09:34:40.523Z,26.5
2023-01-28T09:35:48.504Z,30.7
2023-01-28T09:36:56.676Z,28.7
2023-01-28T09:38:05.976Z,28.2
2023-01-28T09:39:13.194Z,29.9
2023-01-28T09:40:21.304Z,30.5
2023-01-28T09:41:33.692Z,28.3
2023-01-28T09:42:45.933Z,27.2
2023-01-28T09:44:02.036Z,33.9
2023-01-28T09:45:19.596Z,35.7
2023-01-28T09:46:31.903Z,36.3
2023-01-28T09:47:40.408Z,32.9
2023-01-28T09:48:48.712Z,30.2
2023-01-28T09:49:55.950Z,29.9
2023-01-28T09:51:03.281Z,30.6
2023-01-28T09:52:14.162Z,31.2
2023-01-28T09:53:21.793Z,32.4
2023-01-28T09:54:30.276Z,28.7
2023-01-28T09:55:45.524Z,28
2023-01-28T09:56:58.784Z,26.5
2023-01-28T09:58:11.085Z,26.4
2023-01-28T09:59:18.549Z,26.3
2023-01-28T10:00:25.636Z,27.4
2023-01-28T10:01:41.015Z,25.4
2023-01-28T10:02:58.634Z,24.8
2023-01-28T10:04:09.684Z,26.3
2023-01-28T10:05:24.785Z,24.1
2023-01-28T10:06:38.662Z,25.5
2023-01-28T10:07:49.603Z,25.8
2023-01-28T10:09:01.856Z,26.5
2023-01-28T10:10:17.218Z,24.5
2023-01-28T10:11:29.095Z,25.3
2023-01-28T10:12:43.889Z,24.2
2023-01-28T10:13:56.259Z,25.6
2023-01-28T10:15:07.375Z,25.6
2023-01-28T10:16:25.391Z,24.3
2023-01-28T10:17:37.962Z,24.9
2023-01-28T10:18:50.255Z,24.3
2023-01-28T10:20:00.366Z,25.7
2023-01-28T10:21:15.324Z,27.9
2023-01-28T10:22:31.938Z,28.2
2023-01-28T10:23:39.856Z,29
2023-01-28T10:24:58.433Z,24.3
2023-01-28T10:26:05.316Z,28.6
2023-01-28T10:27:18.422Z,29.2
2023-01-28T10:28:26.721Z,28.5
2023-01-28T10:29:34.236Z,30.9
2023-01-28T10:30:41.589Z,28.8
2023-01-28T10:31:49.224Z,29
2023-01-28T10:32:57.303Z,29.7
2023-01-28T10:34:07.477Z,28.9
2023-01-28T10:35:14.328Z,33.5
2023-01-28T10:36:22.020Z,35.1
2023-01-28T10:37:29.969Z,31.6
2023-01-28T10:38:38.019Z,32.5
2023-01-28T10:39:44.978Z,32.8
2023-01-28T10:40:53.523Z,34
2023-01-28T10:42:01.367Z,32.8
2023-01-28T10:43:13.573Z,28.7
2023-01-28T10:44:21.608Z,28.7
2023-01-28T10:45:33.891Z,29.3
2023-01-28T10:46:41.953Z,30.1
2023-01-28T10:47:52.927Z,29.2
2023-01-28T10:49:05.616Z,28.5
2023-01-28T10:50:13.680Z,28.3
2023-01-28T10:51:25.652Z,30.8
2023-01-28T10:52:34.877Z,28.6
2023-01-28T10:53:42.849Z,28.3
2023-01-28T10:54:50.197Z,27.3
2023-01-28T10:56:05.434Z,29.4
2023-01-28T10:57:19.057Z,26.5
2023-01-28T10:58:25.971Z,30.4
2023-01-28T10:59:34.084Z,28.8
2023-01-28T11:00:42.374Z,30
2023-01-28T11:01:49.449Z,30
2023-01-28T11:03:05.046Z,27.9
2023-01-28T11:04:13.340Z,30.3
2023-01-28T11:05:27.701Z,33.2
2023-01-28T11:06:34.758Z,33.5
2023-01-28T11:07:42.120Z,34.9
2023-01-28T11:08:50.060Z,35.5
2023-01-28T11:09:57.190Z,35.8
2023-01-28T11:11:04.264Z,36.8
2023-01-28T11:12:12.429Z,38.1
2023-01-28T11:13:27.526Z,34.4
2023-01-28T11:14:35.847Z,31.6
2023-01-28T11:15:43.156Z,31.8
2023-01-28T11:16:54.096Z,30.9
2023-01-28T11:18:02.507Z,26.6
2023-01-28T11:19:10.676Z,26.6
2023-01-28T11:20:20.509Z,27.8
2023-01-28T11:21:29.166Z,27.2
2023-01-28T11:22:37.047Z,29.4
2023-01-28T11:23:44.136Z,28.2
2023-01-28T11:24:54.388Z,28.6
2023-01-28T11:26:03.175Z,29.6
2023-01-28T11:27:13.276Z,26.8
2023-01-28T11:28:20.714Z,28.7
2023-01-28T11:29:27.653Z,30.3
2023-01-28T11:30:34.821Z,27.8
2023-01-28T11:31:43.179Z,26.9
2023-01-28T11:32:50.844Z,30.8
2023-01-28T11:33:59.984Z,31
2023-01-28T11:35:06.998Z,28.1
2023-01-28T11:36:13.931Z,28.7
2023-01-28T11:37:21.464Z,29.7
2023-01-28T11:38:29.681Z,31.7
2023-01-28T11:39:37.777Z,33.9
2023-01-28T11:40:46.056Z,31.5
2023-01-28T11:41:56.335Z,36.7
2023-01-28T11:43:14.051Z,40.1
2023-01-28T11:44:22.129Z,44.5
2023-01-28T11:45:29.575Z,38.8
2023-01-28T11:46:46.749Z,35.7
2023-01-28T11:48:04.567Z,34.2
2023-01-28T11:49:17.784Z,41.6
2023-01-28T11:50:31.050Z,36.7
2023-01-28T11:51:45.606Z,31.6
2023-01-28T11:53:06.058Z,35.6
2023-01-28T11:54:19.676Z,36.5
2023-01-28T11:55:37.072Z,38
2023-01-28T11:56:57.017Z,33.7
2023-01-28T11:58:09.412Z,28.9
2023-01-28T11:59:27.904Z,27.3
2023-01-28T12:00:40.843Z,26.6
2023-01-28T12:01:55.551Z,27.1
2023-01-28T12:03:08.564Z,28.6
2023-01-28T12:04:27.749Z,29.2
2023-01-28T12:05:41.911Z,29.5
2023-01-28T12:06:58.557Z,30.6
2023-01-28T12:08:11.793Z,29
2023-01-28T12:09:18.820Z,28.7
2023-01-28T12:10:31.127Z,30.6
2023-01-28T12:11:42.171Z,31.7
2023-01-28T12:13:02.751Z,39.7
2023-01-28T12:14:21.371Z,31.3
2023-01-28T12:15:39.157Z,32.5
2023-01-28T12:16:51.569Z,33.7
2023-01-28T12:17:58.800Z,29.9
2023-01-28T12:19:14.215Z,35.4
2023-01-28T12:20:27.931Z,35.8
2023-01-28T12:21:35.357Z,30.8
2023-01-28T12:22:50.912Z,33.2
2023-01-28T12:24:04.232Z,31.3
2023-01-28T12:25:16.708Z,29.9
2023-01-28T12:26:28.372Z,27.8
2023-01-28T12:27:46.543Z,26.7
2023-01-28T12:28:55.855Z,26.8
2023-01-28T12:30:06.940Z,28.8
2023-01-28T12:31:21.309Z,28.9
2023-01-28T12:32:33.811Z,28
2023-01-28T12:33:49.068Z,27.9
2023-01-28T12:34:56.368Z,27.9
2023-01-28T12:36:03.603Z,25.7
2023-01-28T12:37:21.259Z,26.1
2023-01-28T12:38:39.151Z,27.2
2023-01-28T12:39:46.352Z,28.4
2023-01-28T12:40:59.074Z,28.4
2023-01-28T12:42:07.930Z,26.2
2023-01-28T12:43:25.304Z,26
2023-01-28T12:44:43.667Z,28.2
2023-01-28T12:45:50.924Z,26.2
2023-01-28T12:47:03.414Z,27
2023-01-28T12:48:12.554Z,27.4
2023-01-28T12:49:22.751Z,26.3
2023-01-28T12:50:36.605Z,25.8
2023-01-28T12:51:48.858Z,26.9
2023-01-28T12:53:06.219Z,25.9
2023-01-28T12:54:21.381Z,28
2023-01-28T12:55:29.814Z,30.6
2023-01-28T12:56:47.778Z,28.9
2023-01-28T12:57:57.579Z,28.3
2023-01-28T12:59:05.831Z,29.1
2023-01-28T13:00:16.219Z,29.7
2023-01-28T13:01:28.051Z,29.8
2023-01-28T13:02:39.073Z,32.5
2023-01-28T13:03:47.542Z,34.4
2023-01-28T13:04:57.705Z,31.6
2023-01-28T13:06:12.937Z,30
2023-01-28T13:07:31.687Z,23.6
2023-01-28T13:08:42.114Z,27.1
2023-01-28T13:09:49.866Z,24.2
2023-01-28T13:10:57.159Z,22.4
2023-01-28T13:12:04.557Z,24
2023-01-28T13:13:12.288Z,24.5
2023-01-28T13:14:26.362Z,23.3
2023-01-28T13:15:34.486Z,24.2
2023-01-28T13:16:42.285Z,26.5
2023-01-28T13:17:51.203Z,24
2023-01-28T13:19:06.385Z,24
2023-01-28T13:20:22.858Z,24
2023-01-28T13:21:49.025Z,27.6
2023-01-28T13:22:48.833Z,27.2
2023-01-28T13:23:57.085Z,24.7
2023-01-28T13:25:10.070Z,26.3
2023-01-28T13:26:24.782Z,24.7
2023-01-28T13:27:43.445Z,24.9
2023-01-28T13:28:58.485Z,25.3
2023-01-28T13:30:11.458Z,25.9
2023-01-28T13:31:27.766Z,23
2023-01-28T13:32:34.943Z,23.8
2023-01-28T13:33:42.843Z,24.7
2023-01-28T13:34:58.988Z,24.8
2023-01-28T13:36:06.863Z,25.7
2023-01-28T13:37:23.877Z,26.1
2023-01-28T13:38:38.738Z,26.2
2023-01-28T13:39:46.241Z,24.3
2023-01-28T13:40:55.797Z,24.7
2023-01-28T13:42:06.169Z,27.2
2023-01-28T13:43:25.168Z,27.2
2023-01-28T13:44:37.596Z,28
2023-01-28T13:45:46.158Z,29.2
2023-01-28T13:46:58.375Z,28.4
2023-01-28T13:48:08.957Z,27.6
2023-01-28T13:49:16.949Z,27.3
2023-01-28T13:50:27.150Z,27.7
2023-01-28T13:51:43.153Z,28.9
2023-01-28T13:52:56.493Z,28.9
2023-01-28T13:54:13.810Z,28.9
2023-01-28T13:55:37.324Z,30.5
2023-01-28T13:56:29.566Z,28.5
2023-01-28T13:57:47.217Z,31.4
2023-01-28T13:59:05.897Z,31
2023-01-28T14:00:26.466Z,34.7
2023-01-28T14:01:42.641Z,28.3
2023-01-28T14:03:01.973Z,30
2023-01-28T14:04:20.264Z,32.1
2023-01-28T14:05:32.698Z,32.9
2023-01-28T14:06:45.252Z,33.6
2023-01-28T14:08:04.334Z,34.3
2023-01-28T14:09:21.918Z,31.3
2023-01-28T14:10:39.624Z,31.3
2023-01-28T14:11:57.991Z,32.3
2023-01-28T14:13:13.673Z,31.2
2023-01-28T14:14:25.853Z,29.8
2023-01-28T14:15:43.976Z,30.9
2023-01-28T14:16:59.286Z,35.6
2023-01-28T14:18:16.847Z,33.8
2023-01-28T14:19:31.987Z,32.8
2023-01-28T14:20:39.529Z,37.2
2023-01-28T14:21:47.097Z,38.4
2023-01-28T14:22:54.486Z,35
2023-01-28T14:24:04.941Z,35.2
2023-01-28T14:25:13.966Z,37.3
2023-01-28T14:26:24.397Z,38.1
2023-01-28T14:27:41.641Z,43
2023-01-28T14:28:50.190Z,43.4
2023-01-28T14:30:06.121Z,46.2
2023-01-28T14:31:23.536Z,57.4
2023-01-28T14:32:30.744Z,61.9
2023-01-28T14:33:38.630Z,62.7
2023-01-28T14:34:47.126Z,73.9
2023-01-28T14:35:54.087Z,64.5
2023-01-28T14:37:01.198Z,56.7
2023-01-28T14:38:08.517Z,57.6
2023-01-28T14:39:18.656Z,51.7
2023-01-28T14:40:33.076Z,47.7
2023-01-28T14:41:40.410Z,43.5
2023-01-28T14:42:47.735Z,41.7
2023-01-28T14:43:56.357Z,41.8
2023-01-28T14:45:03.504Z,44.7
2023-01-28T14:46:21.485Z,52.5
2023-01-28T14:47:39.001Z,51
2023-01-28T14:48:56.977Z,54.8
2023-01-28T14:50:11.005Z,45.5
2023-01-28T14:51:23.022Z,42.4
2023-01-28T14:52:37.813Z,40.7
2023-01-28T14:53:53.371Z,39.8
2023-01-28T14:55:03.432Z,38.2
2023-01-28T14:56:15.774Z,38.1
2023-01-28T14:57:31.429Z,39.2
2023-01-28T14:58:43.609Z,38.6
2023-01-28T14:59:53.337Z,39
2023-01-28T15:01:03.070Z,39.6
2023-01-28T15:02:11.099Z,40
2023-01-28T15:03:25.760Z,43.2
2023-01-28T15:04:28.839Z,42.2
2023-01-28T15:05:37.159Z,42.3
2023-01-28T15:06:44.209Z,39.6
2023-01-28T15:07:51.318Z,40.6
2023-01-28T15:08:59.181Z,41.9
2023-01-28T15:10:09.941Z,48
2023-01-28T15:11:17.413Z,46.9
2023-01-28T15:12:27.980Z,44.9
2023-01-28T15:13:37.620Z,49.3
2023-01-28T15:14:48.887Z,49.3
2023-01-28T15:15:54.545Z,49.3
2023-01-28T15:17:01.732Z,57.8
2023-01-28T15:18:09.181Z,49.5
2023-01-28T15:19:18.078Z,52.9
2023-01-28T15:20:31.152Z,47.9
2023-01-28T15:21:39.275Z,44
2023-01-28T15:22:47.413Z,43.9
2023-01-28T15:23:54.632Z,39.6
2023-01-28T15:25:01.756Z,42.8
2023-01-28T15:26:10.191Z,39.3
2023-01-28T15:27:17.388Z,47
2023-01-28T15:28:32.376Z,51.5
2023-01-28T15:29:40.533Z,51.8
2023-01-28T15:30:49.585Z,56.4
2023-01-28T15:31:57.123Z,54.7
2023-01-28T15:33:05.424Z,49.3